Toba, Argentina
Current Conditions -  °F | °C
As of 8:00 PM on Friday 24 Oct 2014 (Local Time) from SARC Reporting Station
Clear Clear  
Wind Chill: 79°   Ceiling: Unl
Heat Index: 80°   Visibility: 4mi
Dew Point: 63°   Wind: 3mph
Humidity: 57%   Direction: 160°SSE
Pressure: 29.83"   Gusts: NA
Location:  29.25°S, 60.18°W
Report Text: SARC 242300Z 16003KT 7000 NSC 26/17 Q1010
Loading
Personal Weather Stations






























Interactive Weather Map
Tropical Storm Tracking
New forecast layout! Learn more

10-Day Weather Forecast

Advertisements
Track Severe Weather on mobile